sensor_id;sensor_type;location;lat;lon;timestamp;temperature;humidity
13673;DHT22;6909;52.202;9.876;2022-08-04T00:00:17;20.80;99.90
13673;DHT22;6909;52.202;9.876;2022-08-04T00:02:58;20.70;99.90
13673;DHT22;6909;52.202;9.876;2022-08-04T00:05:29;20.70;99.90
13673;DHT22;6909;52.202;9.876;2022-08-04T00:08:04;20.60;99.90
13673;DHT22;6909;52.202;9.876;2022-08-04T00:10:32;20.50;1.00
13673;DHT22;6909;52.202;9.876;2022-08-04T00:13:02;20.60;1.00
13673;DHT22;6909;52.202;9.876;2022-08-04T00:15:31;20.50;1.00
13673;DHT22;6909;52.202;9.876;2022-08-04T00:18:03;20.50;1.00
13673;DHT22;6909;52.202;9.876;2022-08-04T00:20:32;20.40;1.00
13673;DHT22;6909;52.202;9.876;2022-08-04T00:23:00;20.50;1.00
13673;DHT22;6909;52.202;9.876;2022-08-04T00:25:28;20.40;1.00
13673;DHT22;6909;52.202;9.876;2022-08-04T00:27:55;20.20;1.00
13673;DHT22;6909;52.202;9.876;2022-08-04T00:30:22;19.90;1.00
13673;DHT22;6909;52.202;9.876;2022-08-04T00:32:49;19.60;1.00
13673;DHT22;6909;52.202;9.876;2022-08-04T00:35:18;19.60;1.00
13673;DHT22;6909;52.202;9.876;2022-08-04T00:37:45;19.60;22.90
13673;DHT22;6909;52.202;9.876;2022-08-04T00:40:27;19.60;43.80
13673;DHT22;6909;52.202;9.876;2022-08-04T00:43:05;19.50;1.00
13673;DHT22;6909;52.202;9.876;2022-08-04T00:45:48;19.40;1.00
13673;DHT22;6909;52.202;9.876;2022-08-04T00:48:30;19.30;40.60
13673;DHT22;6909;52.202;9.876;2022-08-04T00:51:10;19.10;99.90
13673;DHT22;6909;52.202;9.876;2022-08-04T00:53:53;19.20;99.90
13673;DHT22;6909;52.202;9.876;2022-08-04T00:56:33;19.30;99.90
13673;DHT22;6909;52.202;9.876;2022-08-04T00:59:09;19.20;99.90
13673;DHT22;6909;52.202;9.876;2022-08-04T01:01:54;19.20;99.90
13673;DHT22;6909;52.202;9.876;2022-08-04T01:04:44;19.10;99.90
13673;DHT22;6909;52.202;9.876;2022-08-04T01:07:26;19.00;99.90
13673;DHT22;6909;52.202;9.876;2022-08-04T01:10:02;18.90;1.00
13673;DHT22;6909;52.202;9.876;2022-08-04T01:12:53;18.80;1.00
13673;DHT22;6909;52.202;9.876;2022-08-04T01:15:37;18.80;1.00
13673;DHT22;6909;52.202;9.876;2022-08-04T01:18:06;18.80;1.00
13673;DHT22;6909;52.202;9.876;2022-08-04T01:20:34;18.80;42.20
13673;DHT22;6909;52.202;9.876;2022-08-04T01:26:17;18.70;23.10
13673;DHT22;6909;52.202;9.876;2022-08-04T01:29:05;18.70;99.90
13673;DHT22;6909;52.202;9.876;2022-08-04T01:31:41;18.70;99.90
13673;DHT22;6909;52.202;9.876;2022-08-04T01:34:12;18.60;99.90
13673;DHT22;6909;52.202;9.876;2022-08-04T01:36:44;18.70;1.00
13673;DHT22;6909;52.202;9.876;2022-08-04T01:39:13;18.70;1.00
13673;DHT22;6909;52.202;9.876;2022-08-04T01:41:59;18.70;99.90
13673;DHT22;6909;52.202;9.876;2022-08-04T01:44:30;18.50;1.00
13673;DHT22;6909;52.202;9.876;2022-08-04T01:47:00;18.60;1.00
13673;DHT22;6909;52.202;9.876;2022-08-04T01:49:29;18.40;1.00
13673;DHT22;6909;52.202;9.876;2022-08-04T01:51:56;18.20;99.90
13673;DHT22;6909;52.202;9.876;2022-08-04T01:54:24;18.10;1.00
13673;DHT22;6909;52.202;9.876;2022-08-04T01:56:52;18.00;1.00
13673;DHT22;6909;52.202;9.876;2022-08-04T01:59:21;17.90;23.00
13673;DHT22;6909;52.202;9.876;2022-08-04T02:01:49;17.90;1.00
13673;DHT22;6909;52.202;9.876;2022-08-04T02:04:17;18.00;1.00
13673;DHT22;6909;52.202;9.876;2022-08-04T02:07:00;18.20;92.90
13673;DHT22;6909;52.202;9.876;2022-08-04T02:09:37;18.30;99.90
13673;DHT22;6909;52.202;9.876;2022-08-04T02:12:08;18.50;1.00
13673;DHT22;6909;52.202;9.876;2022-08-04T02:14:42;18.40;99.90
13673;DHT22;6909;52.202;9.876;2022-08-04T02:17:13;18.40;99.90
13673;DHT22;6909;52.202;9.876;2022-08-04T02:19:58;18.50;99.90
13673;DHT22;6909;52.202;9.876;2022-08-04T02:22:27;18.60;99.90
13673;DHT22;6909;52.202;9.876;2022-08-04T02:25:03;18.60;85.10
13673;DHT22;6909;52.202;9.876;2022-08-04T02:27:44;18.60;1.00
13673;DHT22;6909;52.202;9.876;2022-08-04T02:30:18;18.60;1.00
13673;DHT22;6909;52.202;9.876;2022-08-04T02:32:48;18.50;1.00
13673;DHT22;6909;52.202;9.876;2022-08-04T02:35:23;18.60;99.90
13673;DHT22;6909;52.202;9.876;2022-08-04T02:38:00;18.60;74.60
13673;DHT22;6909;52.202;9.876;2022-08-04T02:40:30;18.60;99.90
13673;DHT22;6909;52.202;9.876;2022-08-04T02:42:57;18.60;99.90
13673;DHT22;6909;52.202;9.876;2022-08-04T02:45:26;18.60;99.90
13673;DHT22;6909;52.202;9.876;2022-08-04T02:48:00;18.60;99.90
13673;DHT22;6909;52.202;9.876;2022-08-04T02:50:30;18.60;99.90
13673;DHT22;6909;52.202;9.876;2022-08-04T02:52:59;18.60;99.90
13673;DHT22;6909;52.202;9.876;2022-08-04T02:55:29;18.60;99.90
13673;DHT22;6909;52.202;9.876;2022-08-04T02:58:01;18.60;99.90
13673;DHT22;6909;52.202;9.876;2022-08-04T03:00:28;18.60;99.90
13673;DHT22;6909;52.202;9.876;2022-08-04T03:03:06;18.60;99.90
13673;DHT22;6909;52.202;9.876;2022-08-04T03:05:46;18.60;99.90
13673;DHT22;6909;52.202;9.876;2022-08-04T03:08:42;18.50;99.90
13673;DHT22;6909;52.202;9.876;2022-08-04T03:14:27;18.40;1.00
13673;DHT22;6909;52.202;9.876;2022-08-04T03:20:21;18.20;1.00
13673;DHT22;6909;52.202;9.876;2022-08-04T03:23:19;18.20;1.00
13673;DHT22;6909;52.202;9.876;2022-08-04T03:32:21;18.00;1.00
13673;DHT22;6909;52.202;9.876;2022-08-04T03:35:07;18.00;1.00
13673;DHT22;6909;52.202;9.876;2022-08-04T03:37:50;17.90;1.00
13673;DHT22;6909;52.202;9.876;2022-08-04T03:40:34;17.80;1.00
13673;DHT22;6909;52.202;9.876;2022-08-04T03:46:40;17.60;1.00
13673;DHT22;6909;52.202;9.876;2022-08-04T03:52:07;17.60;99.90
13673;DHT22;6909;52.202;9.876;2022-08-04T03:58:12;17.80;1.00
13673;DHT22;6909;52.202;9.876;2022-08-04T04:00:49;17.80;1.00
13673;DHT22;6909;52.202;9.876;2022-08-04T04:03:37;17.90;99.90
13673;DHT22;6909;52.202;9.876;2022-08-04T04:09:55;18.00;1.00
13673;DHT22;6909;52.202;9.876;2022-08-04T04:13:05;18.10;99.90
13673;DHT22;6909;52.202;9.876;2022-08-04T04:15:58;18.20;99.90
13673;DHT22;6909;52.202;9.876;2022-08-04T04:18:51;18.30;99.90
13673;DHT22;6909;52.202;9.876;2022-08-04T04:21:57;18.50;1.00
13673;DHT22;6909;52.202;9.876;2022-08-04T04:24:44;18.70;1.00
13673;DHT22;6909;52.202;9.876;2022-08-04T04:27:23;18.80;99.90
13673;DHT22;6909;52.202;9.876;2022-08-04T04:30:05;18.70;95.80
13673;DHT22;6909;52.202;9.876;2022-08-04T04:32:43;18.80;1.00
13673;DHT22;6909;52.202;9.876;2022-08-04T04:35:30;18.90;1.00
13673;DHT22;6909;52.202;9.876;2022-08-04T04:38:17;19.00;1.00
13673;DHT22;6909;52.202;9.876;2022-08-04T04:40:56;19.00;1.00
13673;DHT22;6909;52.202;9.876;2022-08-04T04:43:51;19.10;99.90
13673;DHT22;6909;52.202;9.876;2022-08-04T04:46:29;19.20;99.90
13673;DHT22;6909;52.202;9.876;2022-08-04T04:49:02;19.30;99.90
13673;DHT22;6909;52.202;9.876;2022-08-04T04:51:39;19.40;1.00
13673;DHT22;6909;52.202;9.876;2022-08-04T04:54:12;19.50;1.00
13673;DHT22;6909;52.202;9.876;2022-08-04T04:56:46;19.70;1.00
13673;DHT22;6909;52.202;9.876;2022-08-04T04:59:20;19.90;1.00
13673;DHT22;6909;52.202;9.876;2022-08-04T05:05:10;20.40;1.00
13673;DHT22;6909;52.202;9.876;2022-08-04T05:11:10;21.10;1.00
13673;DHT22;6909;52.202;9.876;2022-08-04T05:13:44;22.30;1.00
13673;DHT22;6909;52.202;9.876;2022-08-04T05:16:18;23.00;99.90
13673;DHT22;6909;52.202;9.876;2022-08-04T05:18:57;24.10;99.90
13673;DHT22;6909;52.202;9.876;2022-08-04T05:21:36;24.60;1.00
13673;DHT22;6909;52.202;9.876;2022-08-04T05:24:08;25.30;1.00
13673;DHT22;6909;52.202;9.876;2022-08-04T05:26:38;25.40;1.00
13673;DHT22;6909;52.202;9.876;2022-08-04T05:29:08;26.40;1.00
13673;DHT22;6909;52.202;9.876;2022-08-04T05:31:40;26.10;99.90
13673;DHT22;6909;52.202;9.876;2022-08-04T05:34:11;26.50;99.90
13673;DHT22;6909;52.202;9.876;2022-08-04T05:36:42;27.00;99.90
13673;DHT22;6909;52.202;9.876;2022-08-04T05:39:13;27.70;1.00
13673;DHT22;6909;52.202;9.876;2022-08-04T05:41:42;29.20;1.00
13673;DHT22;6909;52.202;9.876;2022-08-04T05:44:10;30.20;1.00
13673;DHT22;6909;52.202;9.876;2022-08-04T05:46:39;30.70;1.00
13673;DHT22;6909;52.202;9.876;2022-08-04T05:49:08;31.90;1.00
13673;DHT22;6909;52.202;9.876;2022-08-04T05:51:35;32.60;1.00
13673;DHT22;6909;52.202;9.876;2022-08-04T05:54:02;32.50;99.90
13673;DHT22;6909;52.202;9.876;2022-08-04T05:56:31;32.80;99.90
13673;DHT22;6909;52.202;9.876;2022-08-04T05:58:59;33.60;99.90
13673;DHT22;6909;52.202;9.876;2022-08-04T06:04:56;33.90;99.90
13673;DHT22;6909;52.202;9.876;2022-08-04T06:07:24;34.40;99.90
13673;DHT22;6909;52.202;9.876;2022-08-04T06:09:51;35.10;99.90
13673;DHT22;6909;52.202;9.876;2022-08-04T06:12:24;34.00;99.90
13673;DHT22;6909;52.202;9.876;2022-08-04T06:14:53;34.80;99.50
13673;DHT22;6909;52.202;9.876;2022-08-04T06:17:23;35.40;75.30
13673;DHT22;6909;52.202;9.876;2022-08-04T06:19:51;35.30;42.00
13673;DHT22;6909;52.202;9.876;2022-08-04T06:22:21;35.60;20.50
13673;DHT22;6909;52.202;9.876;2022-08-04T06:24:50;35.10;1.00
13673;DHT22;6909;52.202;9.876;2022-08-04T06:27:20;35.50;1.00
13673;DHT22;6909;52.202;9.876;2022-08-04T06:29:47;35.80;1.00
13673;DHT22;6909;52.202;9.876;2022-08-04T06:32:16;35.50;1.00
13673;DHT22;6909;52.202;9.876;2022-08-04T06:34:53;35.90;1.00
13673;DHT22;6909;52.202;9.876;2022-08-04T06:37:22;35.60;1.00
13673;DHT22;6909;52.202;9.876;2022-08-04T06:39:50;36.70;1.00
13673;DHT22;6909;52.202;9.876;2022-08-04T06:42:19;36.30;1.00
13673;DHT22;6909;52.202;9.876;2022-08-04T06:44:49;36.20;1.00
13673;DHT22;6909;52.202;9.876;2022-08-04T06:47:16;36.20;1.00
13673;DHT22;6909;52.202;9.876;2022-08-04T06:49:47;36.20;1.00
13673;DHT22;6909;52.202;9.876;2022-08-04T06:52:16;35.20;1.00
13673;DHT22;6909;52.202;9.876;2022-08-04T06:54:45;34.50;1.00
13673;DHT22;6909;52.202;9.876;2022-08-04T06:57:14;33.90;1.00
13673;DHT22;6909;52.202;9.876;2022-08-04T06:59:42;33.20;1.00
13673;DHT22;6909;52.202;9.876;2022-08-04T07:02:14;32.60;1.00
13673;DHT22;6909;52.202;9.876;2022-08-04T07:04:41;32.60;1.00
13673;DHT22;6909;52.202;9.876;2022-08-04T07:07:09;32.70;1.00
13673;DHT22;6909;52.202;9.876;2022-08-04T07:09:37;32.90;1.00
13673;DHT22;6909;52.202;9.876;2022-08-04T07:12:06;33.30;1.00
13673;DHT22;6909;52.202;9.876;2022-08-04T07:14:34;33.10;1.00
13673;DHT22;6909;52.202;9.876;2022-08-04T07:17:02;32.60;1.00
13673;DHT22;6909;52.202;9.876;2022-08-04T07:19:30;33.20;1.00
13673;DHT22;6909;52.202;9.876;2022-08-04T07:21:58;34.00;1.00
13673;DHT22;6909;52.202;9.876;2022-08-04T07:24:29;34.60;1.00
13673;DHT22;6909;52.202;9.876;2022-08-04T07:26:55;35.00;1.00
13673;DHT22;6909;52.202;9.876;2022-08-04T07:29:24;35.00;1.00
13673;DHT22;6909;52.202;9.876;2022-08-04T07:31:52;35.10;1.00
13673;DHT22;6909;52.202;9.876;2022-08-04T07:34:20;35.30;1.00
13673;DHT22;6909;52.202;9.876;2022-08-04T07:36:49;35.40;1.00
13673;DHT22;6909;52.202;9.876;2022-08-04T07:39:16;35.40;1.00
13673;DHT22;6909;52.202;9.876;2022-08-04T07:41:43;35.10;1.00
13673;DHT22;6909;52.202;9.876;2022-08-04T07:44:13;35.50;1.00
13673;DHT22;6909;52.202;9.876;2022-08-04T07:46:41;35.40;1.00
13673;DHT22;6909;52.202;9.876;2022-08-04T07:49:08;35.00;1.00
13673;DHT22;6909;52.202;9.876;2022-08-04T07:51:36;34.80;1.00
13673;DHT22;6909;52.202;9.876;2022-08-04T07:54:04;35.20;1.00
13673;DHT22;6909;52.202;9.876;2022-08-04T07:56:32;35.50;1.00
13673;DHT22;6909;52.202;9.876;2022-08-04T07:59:01;35.60;1.00
13673;DHT22;6909;52.202;9.876;2022-08-04T08:01:28;35.70;1.00
13673;DHT22;6909;52.202;9.876;2022-08-04T08:03:57;35.20;1.00
13673;DHT22;6909;52.202;9.876;2022-08-04T08:06:25;35.20;1.00
13673;DHT22;6909;52.202;9.876;2022-08-04T08:08:53;34.70;1.00
13673;DHT22;6909;52.202;9.876;2022-08-04T08:11:20;34.60;1.00
13673;DHT22;6909;52.202;9.876;2022-08-04T08:13:47;34.80;1.00
13673;DHT22;6909;52.202;9.876;2022-08-04T08:16:14;35.50;1.00
13673;DHT22;6909;52.202;9.876;2022-08-04T08:18:43;35.30;1.00
13673;DHT22;6909;52.202;9.876;2022-08-04T08:21:11;34.80;1.00
13673;DHT22;6909;52.202;9.876;2022-08-04T08:23:38;34.70;1.00
13673;DHT22;6909;52.202;9.876;2022-08-04T08:26:06;34.60;1.00
13673;DHT22;6909;52.202;9.876;2022-08-04T08:28:32;34.40;1.00
13673;DHT22;6909;52.202;9.876;2022-08-04T08:31:00;33.90;1.00
13673;DHT22;6909;52.202;9.876;2022-08-04T08:33:27;33.90;1.00
13673;DHT22;6909;52.202;9.876;2022-08-04T08:36:00;34.10;1.00
13673;DHT22;6909;52.202;9.876;2022-08-04T08:38:38;33.90;1.00
13673;DHT22;6909;52.202;9.876;2022-08-04T08:41:37;34.10;1.00
13673;DHT22;6909;52.202;9.876;2022-08-04T08:44:32;33.80;1.00
13673;DHT22;6909;52.202;9.876;2022-08-04T08:47:06;33.80;1.00
13673;DHT22;6909;52.202;9.876;2022-08-04T08:49:49;34.80;1.00
13673;DHT22;6909;52.202;9.876;2022-08-04T08:52:25;35.30;1.00
13673;DHT22;6909;52.202;9.876;2022-08-04T08:55:12;35.60;1.00
13673;DHT22;6909;52.202;9.876;2022-08-04T08:57:59;35.80;1.00
13673;DHT22;6909;52.202;9.876;2022-08-04T09:00:40;35.60;1.00
13673;DHT22;6909;52.202;9.876;2022-08-04T09:03:31;35.40;1.00
13673;DHT22;6909;52.202;9.876;2022-08-04T09:06:40;34.60;1.00
13673;DHT22;6909;52.202;9.876;2022-08-04T09:09:29;34.50;1.00
13673;DHT22;6909;52.202;9.876;2022-08-04T09:12:07;34.30;1.00
13673;DHT22;6909;52.202;9.876;2022-08-04T09:14:40;34.20;1.00
13673;DHT22;6909;52.202;9.876;2022-08-04T09:17:28;34.20;1.00
13673;DHT22;6909;52.202;9.876;2022-08-04T09:20:00;33.90;1.00
13673;DHT22;6909;52.202;9.876;2022-08-04T09:22:34;34.50;1.00
13673;DHT22;6909;52.202;9.876;2022-08-04T09:25:08;34.50;1.00
13673;DHT22;6909;52.202;9.876;2022-08-04T09:27:43;34.20;1.00
13673;DHT22;6909;52.202;9.876;2022-08-04T09:30:13;34.00;1.00
13673;DHT22;6909;52.202;9.876;2022-08-04T09:32:49;34.30;1.00
13673;DHT22;6909;52.202;9.876;2022-08-04T09:35:24;34.10;1.00
13673;DHT22;6909;52.202;9.876;2022-08-04T09:38:04;33.70;1.00
13673;DHT22;6909;52.202;9.876;2022-08-04T09:40:36;33.70;1.00
13673;DHT22;6909;52.202;9.876;2022-08-04T09:43:16;33.90;1.00
13673;DHT22;6909;52.202;9.876;2022-08-04T09:45:51;34.40;1.00
13673;DHT22;6909;52.202;9.876;2022-08-04T09:48:27;34.60;1.00
13673;DHT22;6909;52.202;9.876;2022-08-04T09:50:58;34.40;1.00
13673;DHT22;6909;52.202;9.876;2022-08-04T09:53:36;34.70;1.00
13673;DHT22;6909;52.202;9.876;2022-08-04T09:56:12;34.80;1.00
13673;DHT22;6909;52.202;9.876;2022-08-04T09:58:50;34.60;1.00
13673;DHT22;6909;52.202;9.876;2022-08-04T10:01:21;34.70;1.00
13673;DHT22;6909;52.202;9.876;2022-08-04T10:03:51;34.40;1.00
13673;DHT22;6909;52.202;9.876;2022-08-04T10:06:33;34.20;1.00
13673;DHT22;6909;52.202;9.876;2022-08-04T10:09:12;34.30;1.00
13673;DHT22;6909;52.202;9.876;2022-08-04T10:11:54;34.30;1.00
13673;DHT22;6909;52.202;9.876;2022-08-04T10:14:44;34.50;1.00
13673;DHT22;6909;52.202;9.876;2022-08-04T10:17:29;34.50;1.00
13673;DHT22;6909;52.202;9.876;2022-08-04T10:20:06;35.00;1.00
13673;DHT22;6909;52.202;9.876;2022-08-04T10:22:37;35.30;1.00
13673;DHT22;6909;52.202;9.876;2022-08-04T10:25:16;35.40;1.00
13673;DHT22;6909;52.202;9.876;2022-08-04T10:27:50;35.70;1.00
13673;DHT22;6909;52.202;9.876;2022-08-04T10:30:21;36.10;1.00
13673;DHT22;6909;52.202;9.876;2022-08-04T10:32:54;36.20;1.00
13673;DHT22;6909;52.202;9.876;2022-08-04T10:35:27;36.10;1.00
13673;DHT22;6909;52.202;9.876;2022-08-04T10:38:02;36.10;1.00
13673;DHT22;6909;52.202;9.876;2022-08-04T10:40:35;36.20;1.00
13673;DHT22;6909;52.202;9.876;2022-08-04T10:43:07;36.30;1.00
13673;DHT22;6909;52.202;9.876;2022-08-04T10:45:39;36.20;1.00
13673;DHT22;6909;52.202;9.876;2022-08-04T10:48:14;36.20;1.00
13673;DHT22;6909;52.202;9.876;2022-08-04T10:50:53;36.00;1.00
13673;DHT22;6909;52.202;9.876;2022-08-04T10:53:25;36.20;1.00
13673;DHT22;6909;52.202;9.876;2022-08-04T10:55:58;36.10;1.00
13673;DHT22;6909;52.202;9.876;2022-08-04T10:58:32;35.90;1.00
13673;DHT22;6909;52.202;9.876;2022-08-04T11:01:05;35.80;1.00
13673;DHT22;6909;52.202;9.876;2022-08-04T11:03:40;35.50;1.00
13673;DHT22;6909;52.202;9.876;2022-08-04T11:06:10;35.60;1.00
13673;DHT22;6909;52.202;9.876;2022-08-04T11:08:39;35.70;1.00
13673;DHT22;6909;52.202;9.876;2022-08-04T11:11:12;35.80;1.00
13673;DHT22;6909;52.202;9.876;2022-08-04T11:13:44;35.60;1.00
13673;DHT22;6909;52.202;9.876;2022-08-04T11:16:18;35.50;1.00
13673;DHT22;6909;52.202;9.876;2022-08-04T11:18:48;35.80;1.00
13673;DHT22;6909;52.202;9.876;2022-08-04T11:21:19;35.80;1.00
13673;DHT22;6909;52.202;9.876;2022-08-04T11:23:54;35.70;1.00
13673;DHT22;6909;52.202;9.876;2022-08-04T11:26:30;35.90;1.00
13673;DHT22;6909;52.202;9.876;2022-08-04T11:29:04;35.90;1.00
13673;DHT22;6909;52.202;9.876;2022-08-04T11:31:42;35.70;1.00
13673;DHT22;6909;52.202;9.876;2022-08-04T11:34:17;35.90;1.00
13673;DHT22;6909;52.202;9.876;2022-08-04T11:36:48;36.10;1.00
13673;DHT22;6909;52.202;9.876;2022-08-04T11:39:25;36.00;1.00
13673;DHT22;6909;52.202;9.876;2022-08-04T11:41:56;36.10;1.00
13673;DHT22;6909;52.202;9.876;2022-08-04T11:44:29;36.10;1.00
13673;DHT22;6909;52.202;9.876;2022-08-04T11:47:02;36.60;1.00
13673;DHT22;6909;52.202;9.876;2022-08-04T11:49:33;36.80;1.00
13673;DHT22;6909;52.202;9.876;2022-08-04T11:52:02;36.60;1.00
13673;DHT22;6909;52.202;9.876;2022-08-04T11:54:32;36.40;1.00
13673;DHT22;6909;52.202;9.876;2022-08-04T11:57:00;36.30;1.00
13673;DHT22;6909;52.202;9.876;2022-08-04T11:59:27;36.10;1.00
13673;DHT22;6909;52.202;9.876;2022-08-04T12:02:10;35.70;1.00
13673;DHT22;6909;52.202;9.876;2022-08-04T12:04:46;35.80;1.00
13673;DHT22;6909;52.202;9.876;2022-08-04T12:07:19;35.80;1.00
13673;DHT22;6909;52.202;9.876;2022-08-04T12:09:55;35.60;1.00
13673;DHT22;6909;52.202;9.876;2022-08-04T12:12:31;35.40;1.00
13673;DHT22;6909;52.202;9.876;2022-08-04T12:15:07;35.50;1.00
13673;DHT22;6909;52.202;9.876;2022-08-04T12:17:59;35.70;1.00
13673;DHT22;6909;52.202;9.876;2022-08-04T12:20:29;35.80;1.00
13673;DHT22;6909;52.202;9.876;2022-08-04T12:23:00;36.10;1.00
13673;DHT22;6909;52.202;9.876;2022-08-04T12:25:32;36.20;1.00
13673;DHT22;6909;52.202;9.876;2022-08-04T12:28:04;36.20;1.00
13673;DHT22;6909;52.202;9.876;2022-08-04T12:30:39;36.20;1.00
13673;DHT22;6909;52.202;9.876;2022-08-04T12:33:18;36.20;1.00
13673;DHT22;6909;52.202;9.876;2022-08-04T12:35:50;36.00;1.00
13673;DHT22;6909;52.202;9.876;2022-08-04T12:38:20;36.00;1.00
13673;DHT22;6909;52.202;9.876;2022-08-04T12:40:50;36.10;1.00
13673;DHT22;6909;52.202;9.876;2022-08-04T12:43:21;36.20;1.00
13673;DHT22;6909;52.202;9.876;2022-08-04T12:45:52;36.30;1.00
13673;DHT22;6909;52.202;9.876;2022-08-04T12:48:21;36.40;1.00
13673;DHT22;6909;52.202;9.876;2022-08-04T12:50:51;36.40;1.00
13673;DHT22;6909;52.202;9.876;2022-08-04T12:53:22;36.30;1.00
13673;DHT22;6909;52.202;9.876;2022-08-04T12:55:49;36.20;1.00
13673;DHT22;6909;52.202;9.876;2022-08-04T12:58:20;36.00;1.00
13673;DHT22;6909;52.202;9.876;2022-08-04T13:00:52;35.90;1.00
13673;DHT22;6909;52.202;9.876;2022-08-04T13:03:25;35.90;1.00
13673;DHT22;6909;52.202;9.876;2022-08-04T13:05:53;35.70;1.00
13673;DHT22;6909;52.202;9.876;2022-08-04T13:08:21;35.90;1.00
13673;DHT22;6909;52.202;9.876;2022-08-04T13:10:51;36.00;1.00
13673;DHT22;6909;52.202;9.876;2022-08-04T13:13:20;36.20;1.00
13673;DHT22;6909;52.202;9.876;2022-08-04T13:15:57;36.20;1.00
13673;DHT22;6909;52.202;9.876;2022-08-04T13:18:28;36.50;1.00
13673;DHT22;6909;52.202;9.876;2022-08-04T13:21:08;36.50;1.00
13673;DHT22;6909;52.202;9.876;2022-08-04T13:23:36;36.10;1.00
13673;DHT22;6909;52.202;9.876;2022-08-04T13:26:04;36.00;1.00
13673;DHT22;6909;52.202;9.876;2022-08-04T13:28:32;36.00;1.00
13673;DHT22;6909;52.202;9.876;2022-08-04T13:31:01;35.70;1.00
13673;DHT22;6909;52.202;9.876;2022-08-04T13:33:33;35.50;1.00
13673;DHT22;6909;52.202;9.876;2022-08-04T13:36:01;35.50;1.00
13673;DHT22;6909;52.202;9.876;2022-08-04T13:38:30;35.50;1.00
13673;DHT22;6909;52.202;9.876;2022-08-04T13:41:02;35.80;1.00
13673;DHT22;6909;52.202;9.876;2022-08-04T13:43:32;36.00;1.00
13673;DHT22;6909;52.202;9.876;2022-08-04T13:46:01;36.30;1.00
13673;DHT22;6909;52.202;9.876;2022-08-04T13:48:34;36.40;1.00
13673;DHT22;6909;52.202;9.876;2022-08-04T13:51:03;36.40;1.00
13673;DHT22;6909;52.202;9.876;2022-08-04T13:53:31;36.10;1.00
13673;DHT22;6909;52.202;9.876;2022-08-04T13:55:59;35.90;1.00
13673;DHT22;6909;52.202;9.876;2022-08-04T13:58:29;35.90;1.00
13673;DHT22;6909;52.202;9.876;2022-08-04T14:00:59;36.20;1.00
13673;DHT22;6909;52.202;9.876;2022-08-04T14:03:36;36.10;1.00
13673;DHT22;6909;52.202;9.876;2022-08-04T14:06:09;36.00;1.00
13673;DHT22;6909;52.202;9.876;2022-08-04T14:08:46;35.90;1.00
13673;DHT22;6909;52.202;9.876;2022-08-04T14:11:13;35.70;1.00
13673;DHT22;6909;52.202;9.876;2022-08-04T14:13:40;35.70;1.00
13673;DHT22;6909;52.202;9.876;2022-08-04T14:16:13;35.80;1.00
13673;DHT22;6909;52.202;9.876;2022-08-04T14:18:41;35.90;1.00
13673;DHT22;6909;52.202;9.876;2022-08-04T14:21:09;35.70;1.00
13673;DHT22;6909;52.202;9.876;2022-08-04T14:23:45;35.40;1.00
13673;DHT22;6909;52.202;9.876;2022-08-04T14:26:18;35.40;1.00
13673;DHT22;6909;52.202;9.876;2022-08-04T14:28:45;35.30;1.00
13673;DHT22;6909;52.202;9.876;2022-08-04T14:31:14;35.10;1.00
13673;DHT22;6909;52.202;9.876;2022-08-04T14:33:43;35.00;1.00
13673;DHT22;6909;52.202;9.876;2022-08-04T14:36:11;34.80;1.00
13673;DHT22;6909;52.202;9.876;2022-08-04T14:38:43;34.50;1.00
13673;DHT22;6909;52.202;9.876;2022-08-04T14:41:11;33.60;1.00
13673;DHT22;6909;52.202;9.876;2022-08-04T14:43:42;32.70;1.00
13673;DHT22;6909;52.202;9.876;2022-08-04T14:46:10;32.10;1.00
13673;DHT22;6909;52.202;9.876;2022-08-04T14:48:37;31.90;1.00
13673;DHT22;6909;52.202;9.876;2022-08-04T14:51:11;32.00;1.00
13673;DHT22;6909;52.202;9.876;2022-08-04T14:53:39;31.90;1.00
13673;DHT22;6909;52.202;9.876;2022-08-04T14:56:06;32.00;1.00
13673;DHT22;6909;52.202;9.876;2022-08-04T14:58:33;32.20;1.00
13673;DHT22;6909;52.202;9.876;2022-08-04T15:01:02;32.50;1.00
13673;DHT22;6909;52.202;9.876;2022-08-04T15:03:30;32.80;1.00
13673;DHT22;6909;52.202;9.876;2022-08-04T15:05:58;33.00;1.00
13673;DHT22;6909;52.202;9.876;2022-08-04T15:08:27;33.20;1.00
13673;DHT22;6909;52.202;9.876;2022-08-04T15:10:54;33.20;1.00
13673;DHT22;6909;52.202;9.876;2022-08-04T15:13:23;33.20;1.00
13673;DHT22;6909;52.202;9.876;2022-08-04T15:15:50;33.10;1.00
13673;DHT22;6909;52.202;9.876;2022-08-04T15:18:16;33.20;1.00
13673;DHT22;6909;52.202;9.876;2022-08-04T15:20:43;33.20;1.00
13673;DHT22;6909;52.202;9.876;2022-08-04T15:23:13;33.30;1.00
13673;DHT22;6909;52.202;9.876;2022-08-04T15:25:46;33.40;1.00
13673;DHT22;6909;52.202;9.876;2022-08-04T15:28:16;33.30;1.00
13673;DHT22;6909;52.202;9.876;2022-08-04T15:30:46;33.50;1.00
13673;DHT22;6909;52.202;9.876;2022-08-04T15:33:14;33.50;1.00
13673;DHT22;6909;52.202;9.876;2022-08-04T15:35:45;33.50;1.00
13673;DHT22;6909;52.202;9.876;2022-08-04T15:38:20;33.50;1.00
13673;DHT22;6909;52.202;9.876;2022-08-04T15:40:54;33.60;1.00
13673;DHT22;6909;52.202;9.876;2022-08-04T15:43:42;33.50;1.00
13673;DHT22;6909;52.202;9.876;2022-08-04T15:46:11;33.40;1.00
13673;DHT22;6909;52.202;9.876;2022-08-04T15:48:38;33.10;1.00
13673;DHT22;6909;52.202;9.876;2022-08-04T15:51:07;32.80;1.00
13673;DHT22;6909;52.202;9.876;2022-08-04T15:56:46;32.60;1.00
13673;DHT22;6909;52.202;9.876;2022-08-04T15:59:13;32.50;1.00
13673;DHT22;6909;52.202;9.876;2022-08-04T16:01:40;32.40;1.00
13673;DHT22;6909;52.202;9.876;2022-08-04T16:04:20;32.30;1.00
13673;DHT22;6909;52.202;9.876;2022-08-04T16:06:46;31.80;1.00
13673;DHT22;6909;52.202;9.876;2022-08-04T16:09:21;31.00;1.00
13673;DHT22;6909;52.202;9.876;2022-08-04T16:11:50;30.50;1.00
13673;DHT22;6909;52.202;9.876;2022-08-04T16:14:29;30.30;1.00
13673;DHT22;6909;52.202;9.876;2022-08-04T16:17:15;29.90;1.00
13673;DHT22;6909;52.202;9.876;2022-08-04T16:20:07;29.70;1.00
13673;DHT22;6909;52.202;9.876;2022-08-04T16:22:37;29.60;1.00
13673;DHT22;6909;52.202;9.876;2022-08-04T16:25:05;29.40;1.00
13673;DHT22;6909;52.202;9.876;2022-08-04T16:27:39;29.20;1.00
13673;DHT22;6909;52.202;9.876;2022-08-04T16:30:09;29.00;1.00
13673;DHT22;6909;52.202;9.876;2022-08-04T16:32:44;28.80;1.00
13673;DHT22;6909;52.202;9.876;2022-08-04T16:35:19;28.70;1.00
13673;DHT22;6909;52.202;9.876;2022-08-04T16:37:46;28.60;1.00
13673;DHT22;6909;52.202;9.876;2022-08-04T16:40:29;28.50;1.00
13673;DHT22;6909;52.202;9.876;2022-08-04T16:43:12;28.40;1.00
13673;DHT22;6909;52.202;9.876;2022-08-04T16:45:41;28.40;1.00
13673;DHT22;6909;52.202;9.876;2022-08-04T16:48:09;28.30;1.00
13673;DHT22;6909;52.202;9.876;2022-08-04T16:50:48;28.20;1.00
13673;DHT22;6909;52.202;9.876;2022-08-04T16:53:15;28.20;1.00
13673;DHT22;6909;52.202;9.876;2022-08-04T16:55:48;28.10;1.00
13673;DHT22;6909;52.202;9.876;2022-08-04T16:58:24;28.20;1.00
13673;DHT22;6909;52.202;9.876;2022-08-04T17:00:51;28.10;1.00
13673;DHT22;6909;52.202;9.876;2022-08-04T17:03:18;28.10;1.00
13673;DHT22;6909;52.202;9.876;2022-08-04T17:05:45;28.10;1.00
13673;DHT22;6909;52.202;9.876;2022-08-04T17:08:13;28.20;1.00
13673;DHT22;6909;52.202;9.876;2022-08-04T17:10:45;28.10;1.00
13673;DHT22;6909;52.202;9.876;2022-08-04T17:13:22;28.20;1.00
13673;DHT22;6909;52.202;9.876;2022-08-04T17:15:50;28.20;1.00
13673;DHT22;6909;52.202;9.876;2022-08-04T17:18:19;28.20;1.00
13673;DHT22;6909;52.202;9.876;2022-08-04T17:20:46;28.20;1.00